createdAt,value
2022-10-11T00:00:41.490Z,6.63
2022-10-11T00:03:09.665Z,5.00
2022-10-11T00:05:37.809Z,3.10
2022-10-11T00:08:06.672Z,4.57
2022-10-11T00:10:35.011Z,5.07
2022-10-11T00:13:03.331Z,4.10
2022-10-11T00:15:31.898Z,3.70
2022-10-11T00:18:05.224Z,1.53
2022-10-11T00:20:33.593Z,8.60
2022-10-11T00:23:01.669Z,2.10
2022-10-11T00:25:29.774Z,4.20
2022-10-11T00:27:57.779Z,5.13
2022-10-11T00:30:25.844Z,3.57
2022-10-11T00:32:54.121Z,4.03
2022-10-11T00:35:23.659Z,4.50
2022-10-11T00:37:51.748Z,2.43
2022-10-11T00:40:21.569Z,3.20
2022-10-11T00:42:49.717Z,4.60
2022-10-11T00:45:55.322Z,4.30
2022-10-11T00:48:27.692Z,5.47
2022-10-11T00:51:01.070Z,10.10
2022-10-11T00:53:31.602Z,7.57
2022-10-11T00:56:05.468Z,4.00
2022-10-11T00:58:36.041Z,3.67
2022-10-11T01:01:04.928Z,6.10
2022-10-11T01:03:34.183Z,6.00
2022-10-11T01:06:04.846Z,5.07
2022-10-11T01:08:33.562Z,3.90
2022-10-11T01:11:02.241Z,4.83
2022-10-11T01:13:41.470Z,2.77
2022-10-11T01:16:14.925Z,4.63
2022-10-11T01:18:50.869Z,6.17
2022-10-11T01:21:32.543Z,7.53
2022-10-11T01:24:27.408Z,3.83
2022-10-11T01:27:35.653Z,4.63
2022-10-11T01:30:18.359Z,2.80
2022-10-11T01:32:51.969Z,3.67
2022-10-11T01:35:25.398Z,7.20
2022-10-11T01:37:59.308Z,4.50
2022-10-11T01:40:34.384Z,9.53
2022-10-11T01:43:04.399Z,5.20
2022-10-11T01:45:35.768Z,6.63
2022-10-11T01:48:06.893Z,2.27
2022-10-11T01:50:41.658Z,6.10
2022-10-11T01:53:32.097Z,6.20
2022-10-11T01:56:10.969Z,3.57
2022-10-11T01:58:53.277Z,4.17
2022-10-11T02:01:28.529Z,9.23
2022-10-11T02:04:04.157Z,6.47
2022-10-11T02:06:36.745Z,5.57
2022-10-11T02:09:10.573Z,2.33
2022-10-11T02:11:39.721Z,3.53
2022-10-11T02:14:11.608Z,4.30
2022-10-11T02:16:47.606Z,2.47
2022-10-11T02:19:20.111Z,4.27
2022-10-11T02:21:55.653Z,5.33
2022-10-11T02:24:29.916Z,7.33
2022-10-11T02:27:00.297Z,9.27
2022-10-11T02:29:31.660Z,9.03
2022-10-11T02:32:02.005Z,6.40
2022-10-11T02:34:32.987Z,5.23
2022-10-11T02:37:06.510Z,5.63
2022-10-11T02:39:40.977Z,6.60
2022-10-11T02:42:15.865Z,4.80
2022-10-11T02:44:47.941Z,5.67
2022-10-11T02:47:18.026Z,5.80
2022-10-11T02:49:46.420Z,4.37
2022-10-11T02:52:15.726Z,3.23
2022-10-11T02:54:43.873Z,4.77
2022-10-11T02:57:11.968Z,8.20
2022-10-11T02:59:40.029Z,14.07
2022-10-11T03:02:08.088Z,5.77
2022-10-11T03:04:37.638Z,5.10
2022-10-11T03:07:05.672Z,9.17
2022-10-11T03:09:33.765Z,5.63
2022-10-11T03:12:01.812Z,4.17
2022-10-11T03:14:30.040Z,6.27
2022-10-11T03:17:12.140Z,7.23
2022-10-11T03:19:47.614Z,6.80
2022-10-11T03:22:15.909Z,7.00
2022-10-11T03:24:44.131Z,9.93
2022-10-11T03:27:12.198Z,7.53
2022-10-11T03:29:40.264Z,7.30
2022-10-11T03:32:08.286Z,8.07
2022-10-11T03:34:36.454Z,9.63
2022-10-11T03:37:05.885Z,7.03
2022-10-11T03:39:33.958Z,6.17
2022-10-11T03:42:02.013Z,5.30
2022-10-11T03:44:30.025Z,6.07
2022-10-11T03:46:58.068Z,2.77
2022-10-11T03:49:26.628Z,10.80
2022-10-11T03:51:54.667Z,7.10
2022-10-11T03:54:24.132Z,6.40
2022-10-11T03:56:52.168Z,5.07
2022-10-11T03:59:20.261Z,6.83
2022-10-11T04:01:48.329Z,5.20
2022-10-11T04:04:16.523Z,3.57
2022-10-11T04:06:44.591Z,3.97
2022-10-11T04:09:12.723Z,9.47
2022-10-11T04:11:42.231Z,8.43
2022-10-11T04:14:10.263Z,5.73
2022-10-11T04:16:38.812Z,5.37
2022-10-11T04:19:06.934Z,12.33
2022-10-11T04:21:35.014Z,9.23
2022-10-11T04:24:03.172Z,5.27
2022-10-11T04:26:31.224Z,5.90
2022-10-11T04:29:00.675Z,5.63
2022-10-11T04:31:28.734Z,5.67
2022-10-11T04:33:57.153Z,6.70
2022-10-11T04:36:25.415Z,9.60
2022-10-11T04:38:56.164Z,5.97
2022-10-11T04:41:24.227Z,5.83
2022-10-11T04:43:52.255Z,7.50
2022-10-11T04:46:21.813Z,6.83
2022-10-11T04:48:49.865Z,10.77
2022-10-11T04:51:18.806Z,8.87
2022-10-11T04:53:46.907Z,7.43
2022-10-11T04:56:16.855Z,7.47
2022-10-11T04:58:45.444Z,10.77
2022-10-11T05:01:13.496Z,14.60
2022-10-11T05:03:43.142Z,9.23
2022-10-11T05:06:11.627Z,8.87
2022-10-11T05:08:39.894Z,10.57
2022-10-11T05:11:11.526Z,10.93
2022-10-11T05:13:40.176Z,6.80
2022-10-11T05:16:11.059Z,5.47
2022-10-11T05:18:39.874Z,10.60
2022-10-11T05:21:11.020Z,10.80
2022-10-11T05:23:39.084Z,8.53
2022-10-11T05:26:07.887Z,5.77
2022-10-11T05:28:36.268Z,7.37
2022-10-11T05:31:04.368Z,9.03
2022-10-11T05:33:32.656Z,5.67
2022-10-11T05:36:00.714Z,8.20
2022-10-11T05:38:30.269Z,5.40
2022-10-11T05:41:01.150Z,10.17
2022-10-11T05:43:29.681Z,8.47
2022-10-11T05:45:58.779Z,9.83
2022-10-11T05:48:28.630Z,6.00
2022-10-11T05:51:00.380Z,8.70
2022-10-11T05:53:30.385Z,9.23
2022-10-11T05:55:58.864Z,8.00
2022-10-11T05:58:27.280Z,8.47
2022-10-11T06:00:57.077Z,9.93
2022-10-11T06:03:25.384Z,9.13
2022-10-11T06:05:57.036Z,6.73
2022-10-11T06:08:25.500Z,9.23
2022-10-11T06:10:54.948Z,9.10
2022-10-11T06:13:22.981Z,4.50
2022-10-11T06:15:51.042Z,11.17
2022-10-11T06:18:19.557Z,8.70
2022-10-11T06:20:47.597Z,6.27
2022-10-11T06:23:15.652Z,7.90
2022-10-11T06:25:43.720Z,8.03
2022-10-11T06:28:13.202Z,7.43
2022-10-11T06:30:41.312Z,9.63
2022-10-11T06:33:09.427Z,8.97
2022-10-11T06:35:37.548Z,9.23
2022-10-11T06:38:05.829Z,17.13
2022-10-11T06:40:33.959Z,9.53
2022-10-11T06:43:02.077Z,6.30
2022-10-11T06:45:32.287Z,6.10
2022-10-11T06:48:01.921Z,9.17
2022-10-11T06:50:54.425Z,7.00
2022-10-11T06:53:18.006Z,4.53
2022-10-11T06:55:46.097Z,7.50
2022-10-11T06:58:14.208Z,9.70
2022-10-11T07:00:43.718Z,10.00
2022-10-11T07:03:11.773Z,8.17
2022-10-11T07:05:40.034Z,7.73
2022-10-11T07:08:08.140Z,7.83
2022-10-11T07:10:37.398Z,11.13
2022-10-11T07:13:05.445Z,18.83
2022-10-11T07:15:38.155Z,13.07
2022-10-11T07:18:07.817Z,7.10
2022-10-11T07:20:36.592Z,6.10
2022-10-11T07:23:04.661Z,11.27
2022-10-11T07:25:32.946Z,6.77
2022-10-11T07:28:00.966Z,6.97
2022-10-11T07:30:29.010Z,10.90
2022-10-11T07:32:57.722Z,7.30
2022-10-11T07:35:27.288Z,9.47
2022-10-11T07:37:55.411Z,9.03
2022-10-11T07:40:23.694Z,6.50
2022-10-11T07:42:52.613Z,9.43
2022-10-11T07:45:20.964Z,7.90
2022-10-11T07:47:49.226Z,19.50
2022-10-11T07:50:17.485Z,8.30
2022-10-11T07:52:47.045Z,6.60
2022-10-11T07:55:15.238Z,5.50
2022-10-11T07:57:43.420Z,9.53
2022-10-11T08:00:12.646Z,7.27
2022-10-11T08:02:40.737Z,8.17
2022-10-11T08:05:09.439Z,7.83
2022-10-11T08:07:38.505Z,5.60
2022-10-11T08:10:09.633Z,5.77
2022-10-11T08:12:37.705Z,8.97
2022-10-11T08:15:06.500Z,7.20
2022-10-11T08:17:34.809Z,16.10
2022-10-11T08:20:03.862Z,6.93
2022-10-11T08:22:31.970Z,8.93
2022-10-11T08:25:00.065Z,8.73
2022-10-11T08:27:30.030Z,6.63
2022-10-11T08:29:58.609Z,10.77
2022-10-11T08:32:26.711Z,7.93
2022-10-11T08:34:54.824Z,6.17
2022-10-11T08:37:22.961Z,4.17
2022-10-11T08:39:51.243Z,11.60
2022-10-11T08:42:29.699Z,5.83
2022-10-11T08:45:10.998Z,9.47
2022-10-11T08:47:41.937Z,5.57
2022-10-11T08:50:19.798Z,9.50
2022-10-11T08:52:51.878Z,6.97
2022-10-11T08:55:25.609Z,5.50
2022-10-11T08:57:56.534Z,7.53
2022-10-11T09:00:30.026Z,4.70
2022-10-11T09:03:09.498Z,8.83
2022-10-11T09:05:52.510Z,9.50
2022-10-11T09:08:28.659Z,4.80
2022-10-11T09:11:07.186Z,5.67
2022-10-11T09:14:04.706Z,4.83
2022-10-11T09:16:45.214Z,7.43
2022-10-11T09:19:29.370Z,4.43
2022-10-11T09:22:05.966Z,4.67
2022-10-11T09:24:48.340Z,5.80
2022-10-11T09:27:33.257Z,4.97
2022-10-11T09:30:14.776Z,10.93
2022-10-11T09:32:47.786Z,4.00
2022-10-11T09:35:18.553Z,7.90
2022-10-11T09:37:55.764Z,9.25
2022-10-11T09:40:39.615Z,6.37
2022-10-11T09:43:09.298Z,4.67
2022-10-11T09:45:37.548Z,5.40
2022-10-11T09:48:08.543Z,3.97
2022-10-11T09:50:36.716Z,6.00
2022-10-11T09:53:07.728Z,12.57
2022-10-11T09:55:40.632Z,6.32
2022-10-11T09:58:30.701Z,5.10
2022-10-11T10:01:06.595Z,5.82
2022-10-11T10:03:38.751Z,6.97
2022-10-11T10:06:10.031Z,6.37
2022-10-11T10:08:38.245Z,7.15
2022-10-11T10:11:08.225Z,7.40
2022-10-11T10:13:45.031Z,9.68
2022-10-11T10:16:23.669Z,7.07
2022-10-11T10:18:55.522Z,6.10
2022-10-11T10:21:30.224Z,4.85
2022-10-11T10:24:00.184Z,5.80
2022-10-11T10:26:28.568Z,4.75
2022-10-11T10:29:00.329Z,4.20
2022-10-11T10:31:49.421Z,4.70
2022-10-11T10:34:30.158Z,4.03
2022-10-11T10:37:03.609Z,3.80
2022-10-11T10:39:38.124Z,6.35
2022-10-11T10:42:14.185Z,7.47
2022-10-11T10:44:42.468Z,7.72
2022-10-11T10:47:16.143Z,2.42
2022-10-11T10:49:55.099Z,8.75
2022-10-11T10:52:42.910Z,4.68
2022-10-11T10:55:21.222Z,6.50
2022-10-11T10:58:03.740Z,3.00
2022-10-11T11:00:40.323Z,6.45
2022-10-11T11:03:14.756Z,9.85
2022-10-11T11:05:49.677Z,4.55
2022-10-11T11:08:26.824Z,5.72
2022-10-11T11:11:01.658Z,7.05
2022-10-11T11:13:38.794Z,3.55
2022-10-11T11:16:14.274Z,5.90
2022-10-11T11:18:50.144Z,6.65
2022-10-11T11:21:32.753Z,7.50
2022-10-11T11:24:12.208Z,3.35
2022-10-11T11:26:48.106Z,5.93
2022-10-11T11:29:28.381Z,7.80
2022-10-11T11:32:10.355Z,4.50
2022-10-11T11:34:42.684Z,3.53
2022-10-11T11:37:22.101Z,5.55
2022-10-11T11:39:53.123Z,6.05
2022-10-11T11:42:27.604Z,3.40
2022-10-11T11:44:57.567Z,7.00
2022-10-11T11:47:30.084Z,3.70
2022-10-11T11:50:02.597Z,3.90
2022-10-11T11:52:37.411Z,6.85
2022-10-11T11:55:12.296Z,5.28
2022-10-11T11:57:57.930Z,7.70
2022-10-11T12:00:30.902Z,5.20
2022-10-11T12:03:01.883Z,6.78
2022-10-11T12:05:32.528Z,4.35
2022-10-11T12:08:04.466Z,6.32
2022-10-11T12:10:36.581Z,6.47
2022-10-11T12:13:17.184Z,7.00
2022-10-11T12:16:10.869Z,9.90
2022-10-11T12:18:51.183Z,4.13
2022-10-11T12:21:26.036Z,9.52
2022-10-11T12:23:56.613Z,3.17
2022-10-11T12:26:37.663Z,3.72
2022-10-11T12:29:41.348Z,5.30
2022-10-11T12:32:51.267Z,2.95
2022-10-11T12:35:40.132Z,8.38
2022-10-11T12:38:18.251Z,4.95
2022-10-11T12:40:49.092Z,8.18
2022-10-11T12:43:36.244Z,4.20
2022-10-11T12:46:45.318Z,6.35
2022-10-11T12:49:27.760Z,5.15
2022-10-11T12:52:01.123Z,2.10
2022-10-11T12:54:50.957Z,5.88
2022-10-11T12:58:06.321Z,3.42
2022-10-11T13:00:43.480Z,3.83
2022-10-11T13:03:32.333Z,5.55
2022-10-11T13:06:10.926Z,5.63
2022-10-11T13:08:42.115Z,5.25
2022-10-11T13:11:13.021Z,2.63
2022-10-11T13:13:45.313Z,3.75
2022-10-11T13:16:16.929Z,6.25
2022-10-11T13:18:46.442Z,7.20
2022-10-11T13:21:23.136Z,5.63
2022-10-11T13:23:57.884Z,3.47
2022-10-11T13:26:26.637Z,4.65
2022-10-11T13:28:56.644Z,5.18
2022-10-11T13:31:25.789Z,6.40
2022-10-11T13:33:56.257Z,5.63
2022-10-11T13:36:27.069Z,3.28
2022-10-11T13:38:58.427Z,4.05
2022-10-11T13:41:28.525Z,6.75
2022-10-11T13:43:59.606Z,3.88
2022-10-11T13:46:30.648Z,3.95
2022-10-11T13:49:00.480Z,3.70
2022-10-11T13:51:32.495Z,4.82
2022-10-11T13:54:02.597Z,4.05
2022-10-11T13:56:35.605Z,4.20
2022-10-11T13:59:05.746Z,3.50
2022-10-11T14:01:40.692Z,2.40
2022-10-11T14:04:11.316Z,5.10
2022-10-11T14:06:45.431Z,2.17
2022-10-11T14:09:20.652Z,4.63
2022-10-11T14:11:49.001Z,4.03
2022-10-11T14:14:41.272Z,2.28
2022-10-11T14:17:15.484Z,6.80
2022-10-11T14:19:44.134Z,7.00
2022-10-11T14:22:16.066Z,3.22
2022-10-11T14:24:44.472Z,5.75
2022-10-11T14:27:19.290Z,2.85
2022-10-11T14:30:06.037Z,3.47
2022-10-11T14:32:37.747Z,3.28
2022-10-11T14:35:06.906Z,3.17
2022-10-11T14:37:35.022Z,6.05
2022-10-11T14:40:03.108Z,3.22
2022-10-11T14:42:31.168Z,3.67
2022-10-11T14:45:00.625Z,4.53
2022-10-11T14:47:28.632Z,3.08
2022-10-11T14:49:56.751Z,3.63
2022-10-11T14:52:24.823Z,4.20
2022-10-11T14:54:52.842Z,3.53
2022-10-11T14:57:20.884Z,2.58
2022-10-11T14:59:48.937Z,4.55
2022-10-11T15:02:18.416Z,4.63
2022-10-11T15:04:46.541Z,2.40
2022-10-11T15:07:14.680Z,3.00
2022-10-11T15:09:42.731Z,2.65
2022-10-11T15:12:10.803Z,5.28
2022-10-11T15:14:38.949Z,4.53
2022-10-11T15:17:07.016Z,1.90
2022-10-11T15:19:36.555Z,2.25
2022-10-11T15:22:06.006Z,3.95
2022-10-11T15:24:34.125Z,4.65
2022-10-11T15:27:02.573Z,5.80
2022-10-11T15:29:30.779Z,3.33
2022-10-11T15:31:58.823Z,2.50
2022-10-11T15:34:27.041Z,7.68
2022-10-11T15:36:56.535Z,1.98
2022-10-11T15:39:27.658Z,3.88
2022-10-11T15:41:55.916Z,4.55
2022-10-11T15:44:24.364Z,9.52
2022-10-11T15:46:53.086Z,5.43
2022-10-11T15:49:21.227Z,6.70
2022-10-11T15:51:49.284Z,3.35
2022-10-11T15:54:19.268Z,5.10
2022-10-11T15:56:47.801Z,3.70
2022-10-11T15:59:15.917Z,4.50
2022-10-11T16:01:44.503Z,2.42
2022-10-11T16:04:12.925Z,8.10
2022-10-11T16:06:42.256Z,5.68
2022-10-11T16:09:10.530Z,4.82
2022-10-11T16:11:40.013Z,2.35
2022-10-11T16:14:08.093Z,2.78
2022-10-11T16:16:36.206Z,5.07
2022-10-11T16:19:04.581Z,4.97
2022-10-11T16:21:32.617Z,7.65
2022-10-11T16:24:00.687Z,3.83
2022-10-11T16:26:28.725Z,6.37
2022-10-11T16:28:58.333Z,3.72
2022-10-11T16:31:29.051Z,4.25
2022-10-11T16:33:57.808Z,5.20
2022-10-11T16:36:40.748Z,11.07
2022-10-11T16:39:12.564Z,6.40
2022-10-11T16:41:40.998Z,6.00
2022-10-11T16:44:14.544Z,6.17
2022-10-11T16:46:43.437Z,5.40
2022-10-11T16:49:14.640Z,6.28
2022-10-11T16:51:42.877Z,9.83
2022-10-11T16:54:11.185Z,9.83
2022-10-11T16:56:40.222Z,15.07
2022-10-11T16:59:11.072Z,8.53
2022-10-11T17:01:40.161Z,4.40
2022-10-11T17:04:08.760Z,6.70
2022-10-11T17:06:37.935Z,7.53
2022-10-11T17:09:06.163Z,7.03
2022-10-11T17:11:44.092Z,7.60
2022-10-11T17:14:15.392Z,8.27
2022-10-11T17:16:43.973Z,9.50
2022-10-11T17:19:12.914Z,7.60
2022-10-11T17:21:41.970Z,7.37
2022-10-11T17:24:10.630Z,4.97
2022-10-11T17:26:38.976Z,7.03
2022-10-11T17:29:07.212Z,8.23
2022-10-11T17:31:38.481Z,7.90
2022-10-11T17:34:06.534Z,5.70
2022-10-11T17:36:35.604Z,9.20
2022-10-11T17:39:06.433Z,10.87
2022-10-11T17:41:35.237Z,6.70
2022-10-11T17:44:03.731Z,13.57
2022-10-11T17:46:33.006Z,8.03
2022-10-11T17:49:07.440Z,10.43
2022-10-11T17:51:37.017Z,9.63
2022-10-11T17:54:06.192Z,9.30
2022-10-11T17:56:37.924Z,11.20
2022-10-11T17:59:06.922Z,11.97
2022-10-11T18:01:35.379Z,17.03
2022-10-11T18:04:06.695Z,15.87
2022-10-11T18:06:39.807Z,14.70
2022-10-11T18:09:08.189Z,12.87
2022-10-11T18:11:36.718Z,11.43
2022-10-11T18:14:05.625Z,10.43
2022-10-11T18:16:34.508Z,9.27
2022-10-11T18:19:06.999Z,10.27
2022-10-11T18:21:37.711Z,8.73
2022-10-11T18:24:10.741Z,9.77
2022-10-11T18:26:39.392Z,14.07
2022-10-11T18:29:07.496Z,15.40
2022-10-11T18:31:36.239Z,10.73
2022-10-11T18:34:06.737Z,14.83
2022-10-11T18:36:34.968Z,9.57
2022-10-11T18:39:05.969Z,11.23
2022-10-11T18:41:36.273Z,10.03
2022-10-11T18:44:07.158Z,7.57
2022-10-11T18:46:35.887Z,13.63
2022-10-11T18:49:05.795Z,8.10
2022-10-11T18:51:35.492Z,11.33
2022-10-11T18:54:04.441Z,8.10
2022-10-11T18:56:34.635Z,10.70
2022-10-11T18:59:02.769Z,9.70
2022-10-11T19:01:33.132Z,10.57
2022-10-11T19:04:02.902Z,11.13
2022-10-11T19:06:33.965Z,10.13
2022-10-11T19:09:03.826Z,9.40
2022-10-11T19:11:32.846Z,10.93
2022-10-11T19:14:03.083Z,11.27
2022-10-11T19:16:32.024Z,9.90
2022-10-11T19:19:00.486Z,15.50
2022-10-11T19:21:28.855Z,8.00
2022-10-11T19:23:58.730Z,9.07
2022-10-11T19:26:30.147Z,11.67
2022-10-11T19:29:00.446Z,10.47
2022-10-11T19:31:29.179Z,11.47
2022-10-11T19:33:58.647Z,10.57
2022-10-11T19:36:30.435Z,11.27
2022-10-11T19:39:02.186Z,11.83
2022-10-11T19:41:30.279Z,13.27
2022-10-11T19:43:59.168Z,13.17
2022-10-11T19:46:50.000Z,8.30
2022-10-11T19:49:20.335Z,11.83
2022-10-11T19:51:49.756Z,10.00
2022-10-11T19:54:19.874Z,13.50
2022-10-11T19:56:48.702Z,9.60
2022-10-11T19:59:17.210Z,9.93
2022-10-11T20:01:52.062Z,11.77
2022-10-11T20:07:09.359Z,15.20
2022-10-11T20:09:39.063Z,12.97
2022-10-11T20:12:07.568Z,11.60
2022-10-11T20:14:36.152Z,9.47
2022-10-11T20:17:04.249Z,14.50
2022-10-11T20:19:32.522Z,12.93
2022-10-11T20:22:01.624Z,11.17
2022-10-11T20:24:33.522Z,7.93
2022-10-11T20:27:04.908Z,11.50
2022-10-11T20:29:33.050Z,10.13
2022-10-11T20:32:01.190Z,9.67
2022-10-11T20:34:29.608Z,9.70
2022-10-11T20:36:57.792Z,11.20
2022-10-11T20:39:26.172Z,12.80
2022-10-11T20:41:54.297Z,10.87
2022-10-11T20:44:23.775Z,10.50
2022-10-11T20:46:51.862Z,11.37
2022-10-11T20:49:20.811Z,10.03
2022-10-11T20:51:49.001Z,11.27
2022-10-11T20:54:17.686Z,12.37
2022-10-11T20:56:45.796Z,9.73
2022-10-11T20:59:14.084Z,11.87
2022-10-11T21:01:44.610Z,11.43
2022-10-11T21:04:20.036Z,13.10
2022-10-11T21:06:49.141Z,12.67
2022-10-11T21:09:17.897Z,10.90
2022-10-11T21:11:46.455Z,11.40
2022-10-11T21:14:14.753Z,10.90
2022-10-11T21:16:44.240Z,12.67
2022-10-11T21:19:16.149Z,11.90
2022-10-11T21:21:49.722Z,10.37
2022-10-11T21:24:20.868Z,14.20
2022-10-11T21:26:48.977Z,9.60
2022-10-11T21:29:17.413Z,9.77
2022-10-11T21:31:47.025Z,12.70
2022-10-11T21:34:15.295Z,12.23
2022-10-11T21:36:43.708Z,11.17
2022-10-11T21:39:11.971Z,8.73
2022-10-11T21:41:42.268Z,9.00
2022-10-11T21:44:10.406Z,13.37
2022-10-11T21:49:28.269Z,19.00
2022-10-11T21:51:56.896Z,12.53
2022-10-11T21:54:25.053Z,11.70
2022-10-11T21:56:53.326Z,12.57
2022-10-11T21:59:21.647Z,9.87
2022-10-11T22:01:50.826Z,11.57
2022-10-11T22:04:18.964Z,9.53
2022-10-11T22:06:48.806Z,9.30
2022-10-11T22:09:17.090Z,9.13
2022-10-11T22:11:45.170Z,9.50
2022-10-11T22:14:13.318Z,10.43
2022-10-11T22:16:41.508Z,10.67
2022-10-11T22:19:09.604Z,9.10
2022-10-11T22:21:42.539Z,11.47
2022-10-11T22:24:14.445Z,12.43
2022-10-11T22:26:42.606Z,12.73
2022-10-11T22:29:10.708Z,11.60
2022-10-11T22:31:38.921Z,11.40
2022-10-11T22:34:07.060Z,9.20
2022-10-11T22:36:35.154Z,16.03
2022-10-11T22:39:07.739Z,11.13
2022-10-11T22:41:37.540Z,8.80
2022-10-11T22:44:05.808Z,10.70
2022-10-11T22:46:33.856Z,8.80
2022-10-11T22:49:01.929Z,12.87
2022-10-11T22:51:30.007Z,9.53
2022-10-11T22:53:58.082Z,9.57
2022-10-11T22:56:26.296Z,10.40
2022-10-11T22:58:55.795Z,10.30
2022-10-11T23:01:23.872Z,11.07
2022-10-11T23:03:52.077Z,15.33
2022-10-11T23:06:20.167Z,12.67
2022-10-11T23:08:48.197Z,12.57
2022-10-11T23:11:16.665Z,14.40
2022-10-11T23:13:44.824Z,11.13
2022-10-11T23:16:14.621Z,8.33
2022-10-11T23:18:42.703Z,11.00
2022-10-11T23:21:10.972Z,10.13
2022-10-11T23:23:39.846Z,9.73
2022-10-11T23:26:09.938Z,7.97
2022-10-11T23:28:38.527Z,8.87
2022-10-11T23:31:11.084Z,11.33
2022-10-11T23:33:40.713Z,11.80
2022-10-11T23:36:15.392Z,9.77
2022-10-11T23:38:43.502Z,10.20
2022-10-11T23:41:11.663Z,10.47
2022-10-11T23:43:39.717Z,8.27
2022-10-11T23:46:07.769Z,8.33
2022-10-11T23:48:35.884Z,12.10
2022-10-11T23:51:05.528Z,13.83
2022-10-11T23:53:33.906Z,9.17
2022-10-11T23:56:01.928Z,15.23
2022-10-11T23:58:30.030Z,9.47
